Stations météo

Publicité
Bourg-St-Maurice, France (7497): Température de l'air & dewpoint: 13.04.2019 02:00:00 - 19.04.2019 02:00:00 (CEST)Bourg-St-Maurice, France (7497): Température de l'air -20cm & Température de l'air -100cm: 13.04.2019 02:00:00 - 19.04.2019 02:00:00 (CEST)Bourg-St-Maurice, France (7497): Vitesse du vent & gusts: 13.04.2019 02:00:00 - 19.04.2019 02:00:00 (CEST)Bourg-St-Maurice, France (7497): Direction du vent: 13.04.2019 02:00:00 - 19.04.2019 02:00:00 (CEST)Bourg-St-Maurice, France (7497): Ensoleillement: 13.04.2019 02:00:00 - 19.04.2019 02:00:00 (CEST)Bourg-St-Maurice, France (7497): Quantités de précipitations: 13.04.2019 02:00:00 - 19.04.2019 02:00:00 (CEST)
Date & Time tt [°C] td [°C] tt -20cm [°C] tt -100cm [°C] ff [km/h] ff [knt] fx [km/h] fx [knt] dd sd [min] rr [mm]
19.04.2019 02:00:00 12,6 1,0 13,8 10,1 11 6 31 17 NE 0 0,0
19.04.2019 01:00:00 12,7 -0,2 13,9 10,1 8 4 32 18 NE 0 0,0
19.04.2019 00:00:00 13,3 0,0 14,0 10,1 14 7 37 20 NE 0 0,0
18.04.2019 23:00:00 13,7 0,0 14,1 10,0 16 9 35 19 NE 0 0,0
18.04.2019 22:00:00 13,7 0,0 14,1 10,0 10 5 27 15 NNE 0 0,0
18.04.2019 21:00:00 14,3 -0,2 14,1 10,0 10 5 30 16 NE 0 0,0
18.04.2019 20:00:00 15,6 -0,2 14,0 10,0 13 7 35 19 NE 0 0,0
18.04.2019 19:00:00 17,1 0,3 13,9 10,0 13 7 35 19 NE 29 0,0
18.04.2019 18:00:00 18,2 -0,1 13,7 10,0 14 8 34 18 ENE 60 0,0
18.04.2019 17:00:00 19,1 -0,4 13,5 10,0 14 8 32 17 ENE 54 0,0
18.04.2019 16:00:00 19,2 0,7 13,2 9,9 16 9 42 23 ENE 60 0,0
18.04.2019 15:00:00 19,3 1,3 12,8 9,9 21 12 42 23 NE 60 0,0
18.04.2019 14:00:00 18,9 0,0 12,5 9,9 19 10 45 24 NNE 60 0,0
18.04.2019 13:00:00 18,1 0,2 12,3 10,0 20 11 48 26 NNE 60 0,0
18.04.2019 12:00:00 17,6 0,3 12,2 9,9 20 11 46 25 NE 60 0,0
18.04.2019 11:00:00 16,9 -0,4 12,2 9,9 20 11 52 28 NE 60 0,0
18.04.2019 10:00:00 15,6 -1,1 12,2 9,9 22 12 52 28 NE 58 0,0
18.04.2019 09:00:00 14,6 -1,5 12,4 9,9 21 11 48 26 NE 60 0,0
18.04.2019 08:00:00 13,4 -1,8 12,5 9,9 20 11 48 26 NE 25 0,0
18.04.2019 07:00:00 12,1 -1,5 12,6 9,9 14 8 48 26 NE 0 0,0
18.04.2019 06:00:00 12,6 -1,0 12,7 9,9 10 6 40 22 NNE 0 0,0
18.04.2019 05:00:00 11,5 -0,3 12,8 9,9 8 4 35 19 N 0 0,0
18.04.2019 04:00:00 9,5 1,1 12,9 9,9 4 2 22 12 W 0 0,0
18.04.2019 03:00:00 11,5 0,6 13,1 9,9 7 4 37 20 W 0 0,0
18.04.2019 02:00:00 12,4 0,5 13,2 9,9 10 6 29 15 NNE 0 0,0
18.04.2019 01:00:00 12,4 0,8 13,3 9,9 8 5 29 16 N 0 0,0
18.04.2019 00:00:00 13,0 1,0 13,4 9,9 13 7 30 16 N 0 0,0
17.04.2019 23:00:00 12,3 1,0 13,5 9,9 3 2 16 9 N 0 0,0
17.04.2019 22:00:00 12,6 1,0 13,5 9,9 4 2 16 9 W 0 0,0
17.04.2019 21:00:00 13,7 0,7 13,5 9,9 5 3 16 9 WNW 0 0,0
17.04.2019 20:00:00 15,6 1,3 13,4 9,8 6 3 16 9 WNW 16 0,0
17.04.2019 19:00:00 17,3 1,7 13,3 9,8 9 5 18 10 NW 34 0,0
17.04.2019 18:00:00 20,0 -0,1 13,0 9,8 11 6 22 12 NNE 55 0,0
17.04.2019 17:00:00 20,8 -3,0 12,7 9,8 3 1 16 8 E 51 0,0
17.04.2019 16:00:00 21,3 -0,1 12,3 9,8 6 3 20 11 S 60 0,0
17.04.2019 15:00:00 21,0 0,2 11,8 9,8 9 5 21 12 SSW 60 0,0
17.04.2019 14:00:00 19,4 -0,1 11,4 9,8 8 4 16 9 SE 60 0,0
17.04.2019 13:00:00 18,7 3,3 11,1 9,8 5 3 11 6 SSW 60 0,0
17.04.2019 12:00:00 15,6 2,4 10,9 9,8 5 3 12 6 S 60 0,0
17.04.2019 11:00:00 12,8 3,4 10,9 9,8 4 2 10 5 S 60 0,0
17.04.2019 10:00:00 10,0 3,7 11,0 9,8 2 1 7 4 S 60 0,0
17.04.2019 09:00:00 7,6 3,1 11,1 9,8 2 1 6 3 ESE 60 0,0
17.04.2019 08:00:00 4,9 2,9 11,3 9,8 3 1 5 3 NNE 21 0,0
17.04.2019 07:00:00 3,8 2,2 11,4 9,8 4 2 5 3 N 0 0,0
17.04.2019 06:00:00 4,6 2,6 11,5 9,8 3 1 9 5 N 0 0,0
17.04.2019 05:00:00 5,4 3,2 11,6 9,8 3 2 7 4 NNE 0 0,0
17.04.2019 04:00:00 6,7 4,0 11,7 9,8 2 1 4 2 NW 0 0,0
17.04.2019 03:00:00 7,5 4,6 11,7 9,7 0 0 5 3 N 0 0,0
17.04.2019 02:00:00 7,7 4,6 11,8 9,8 0 0 4 2 N 0 0,0
17.04.2019 01:00:00 7,9 4,8 11,9 9,8 0 0 0 0 N 0 0,0
17.04.2019 00:00:00 7,9 4,8 11,9 9,7 0 0 5 3 N 0 0,0
16.04.2019 23:00:00 8,2 5,0 12,0 9,7 2 1 4 2 SW 0 0,0
16.04.2019 22:00:00 8,5 5,1 12,0 9,7 2 1 9 5 S 0 0,0
16.04.2019 21:00:00 8,8 5,0 11,9 9,7 5 3 16 9 SSW 0 0,0
16.04.2019 20:00:00 10,0 5,2 11,9 9,7 10 5 17 9 SSW 0 0,0
16.04.2019 19:00:00 11,3 3,3 11,8 9,7 4 2 13 7 NNE 0 0,0
16.04.2019 18:00:00 12,3 2,2 11,7 9,7 6 3 19 10 NNE 0 0,0
16.04.2019 17:00:00 12,9 1,8 11,5 9,7 7 4 17 9 NNE 0 0,0
16.04.2019 16:00:00 12,8 1,5 11,3 9,7 8 4 19 10 NW 0 0,0
16.04.2019 15:00:00 13,9 -0,6 11,2 9,7 2 1 18 10 WSW 0 0,0
16.04.2019 14:00:00 13,7 -0,7 11,0 9,7 8 4 28 15 S 0 0,0
16.04.2019 13:00:00 13,0 -1,7 10,9 9,7 14 8 40 22 ENE 0 0,0
16.04.2019 12:00:00 13,8 -2,2 10,7 9,7 17 9 35 19 ENE 36 0,0
16.04.2019 11:00:00 12,3 -2,0 10,7 9,7 11 6 27 15 SE 3 0,0
16.04.2019 10:00:00 10,5 -0,1 10,8 9,7 10 6 20 11 SSW 49 0,0
16.04.2019 09:00:00 8,7 -0,1 10,8 9,7 7 4 16 9 S 7 0,0
16.04.2019 08:00:00 7,6 -1,6 10,9 9,7 8 5 15 8 SW 0 0,0
16.04.2019 07:00:00 7,7 -1,3 11,0 9,7 8 5 16 9 SSW 0 0,0
16.04.2019 06:00:00 9,6 -3,4 11,1 9,7 7 4 28 15 NNE 0 0,0
16.04.2019 05:00:00 10,0 -3,7 11,2 9,7 13 7 34 18 NE 0 0,0
16.04.2019 04:00:00 9,7 -3,6 11,3 9,7 7 4 38 20 NNE 0 0,0
16.04.2019 03:00:00 10,1 -3,6 11,4 9,6 9 5 35 19 NNE 0 0,0
16.04.2019 02:00:00 10,1 -3,6 11,5 9,7 16 9 40 21 ENE 0 0,0
16.04.2019 01:00:00 10,0 -3,3 11,6 9,7 7 4 34 19 NE 0 0,0
16.04.2019 00:00:00 10,3 -3,1 11,7 9,7 12 6 34 19 NE 0 0,0
15.04.2019 23:00:00 10,4 -3,3 11,8 9,7 10 5 34 18 ENE 0 0,0
15.04.2019 22:00:00 11,0 -3,2 11,8 9,7 14 7 40 21 ENE 0 0,0
15.04.2019 21:00:00 11,3 -3,3 11,8 9,7 14 7 36 19 ENE 0 0,0
15.04.2019 20:00:00 12,3 -3,9 11,7 9,6 12 7 36 19 NNE 0 0,0
15.04.2019 19:00:00 13,3 -4,9 11,6 9,6 13 7 35 19 ENE 40 0,0
15.04.2019 18:00:00 15,1 -4,3 11,5 9,6 16 9 36 19 ENE 60 0,0
15.04.2019 17:00:00 15,8 -4,8 11,2 9,6 15 8 34 19 ENE 60 0,0
15.04.2019 16:00:00 16,2 -4,4 10,9 9,7 13 7 35 19 ENE 54 0,0
15.04.2019 15:00:00 16,1 -5,1 10,5 9,6 15 8 40 22 ENE 52 0,0
15.04.2019 14:00:00 15,6 -4,4 10,1 9,6 16 9 46 25 ENE 58 0,0
15.04.2019 13:00:00 14,9 -4,5 9,8 9,6 16 9 46 25 NNE 60 0,0
15.04.2019 12:00:00 13,9 -4,3 9,7 9,6 19 10 47 26 NNE 60 0,0
15.04.2019 11:00:00 12,5 -4,2 9,8 9,6 19 10 40 22 NE 60 0,0
15.04.2019 10:00:00 6,0 -2,9 9,9 9,6 8 4 17 9 S 60 0,0
15.04.2019 09:00:00 2,3 -3,8 10,1 9,6 4 2 10 5 S 60 0,0
15.04.2019 08:00:00 -0,2 -4,5 10,3 9,6 3 1 9 5 SSW 18 0,0
15.04.2019 07:00:00 -1,4 -4,9 10,5 9,6 5 3 9 5 N 0 0,0
15.04.2019 06:00:00 -1,4 -5,1 10,7 9,6 0 0 8 5 N 0 0,0
15.04.2019 05:00:00 -0,5 -4,7 10,9 9,6 4 2 7 4 NW 0 0,0
15.04.2019 04:00:00 -0,4 -4,7 11,1 9,6 0 0 5 3 N 0 0,0
15.04.2019 03:00:00 0,1 -4,7 11,3 9,6 2 1 7 4 NNW 0 0,0
15.04.2019 02:00:00 0,8 -4,6 11,5 9,6 0 0 6 3 N 0 0,0
15.04.2019 01:00:00 1,7 -4,8 11,7 9,6 0 0 8 4 N 0 0,0
15.04.2019 00:00:00 2,6 -5,3 11,8 9,6 3 2 9 5 NNW 0 0,0
14.04.2019 23:00:00 3,5 -5,2 11,9 9,6 3 2 10 5 WNW 0 0,0
14.04.2019 22:00:00 4,8 -4,8 12,0 9,6 5 3 14 8 WNW 0 0,0
14.04.2019 21:00:00 7,1 -5,9 12,1 9,6 9 5 24 13 SE 0 0,0
14.04.2019 20:00:00 8,2 -7,1 12,0 9,5 6 4 19 11 S 12 0,0
14.04.2019 19:00:00 9,5 -8,1 12,0 9,6 9 5 23 12 S 40 0,0
14.04.2019 18:00:00 11,6 -7,3 11,9 9,6 12 6 24 13 S 60 0,0
14.04.2019 17:00:00 10,6 -8,7 11,8 9,6 10 5 24 13 N 44 0,0
14.04.2019 16:00:00 9,4 -7,8 11,5 9,5 5 3 24 13 NNE 1 0,0
14.04.2019 15:00:00 10,1 -10,1 11,0 9,5 15 8 26 14 NE 51 0,0
14.04.2019 14:00:00 10,8 -8,0 10,6 9,5 10 5 19 10 NE 60 0,0
14.04.2019 13:00:00 9,5 -8,1 10,4 9,5 4 2 16 9 NNE 60 0,0
14.04.2019 12:00:00 8,4 -6,2 10,2 9,5 8 4 15 8 ESE 60 0,0
14.04.2019 11:00:00 7,0 -5,1 10,3 9,5 5 3 12 7 SSE 60 0,0
14.04.2019 10:00:00 4,3 -3,0 10,4 9,5 4 2 10 5 S 37 0,0
14.04.2019 09:00:00 2,3 -2,4 10,5 9,5 5 3 9 5 S 11 0,0
14.04.2019 08:00:00 0,6 -2,3 10,7 9,5 0 0 9 5 N 0 0,0
14.04.2019 07:00:00 0,3 -2,6 10,9 9,5 0 0 4 2 N 0 0,0
14.04.2019 06:00:00 1,5 -2,6 11,0 9,5 0 0 9 5 N 0 0,0
14.04.2019 05:00:00 2,0 -2,0 11,2 9,5 4 2 9 5 SW 0 0,0
14.04.2019 04:00:00 2,1 -2,4 11,4 9,5 2 1 6 4 WSW 0 0,0
14.04.2019 03:00:00 2,2 -2,1 11,5 9,4 3 2 10 5 W 0 0,0
14.04.2019 02:00:00 3,2 -1,9 11,7 9,5 4 2 10 6 W 0 0,0
14.04.2019 01:00:00 3,6 -1,8 11,9 9,5 4 2 12 7 W 0 0,0
14.04.2019 00:00:00 4,2 -2,2 12,0 9,5 5 3 16 9 W 0 0,0
13.04.2019 23:00:00 5,2 -2,6 12,2 9,5 6 3 11 6 W 0 0,0
13.04.2019 22:00:00 6,2 -2,9 12,3 9,5 4 2 12 6 W 0 0,0
13.04.2019 21:00:00 7,4 -3,8 12,3 9,4 3 2 15 8 S 0 0,0
13.04.2019 20:00:00 9,2 -5,9 12,3 9,4 3 2 22 12 W 0 0,0
13.04.2019 19:00:00 10,8 -4,9 12,3 9,5 5 3 24 13 NW 37 0,0
13.04.2019 18:00:00 13,6 -4,6 12,2 9,4 8 4 28 15 SSW 60 0,0
13.04.2019 17:00:00 15,0 -4,9 11,9 9,4 12 7 41 22 S 60 0,0
13.04.2019 16:00:00 15,2 -6,4 11,5 9,4 9 5 34 19 SSW 57 0,0
13.04.2019 15:00:00 15,2 -2,7 11,1 9,4 6 3 34 19 E 50 0,0
13.04.2019 14:00:00 14,4 -4,9 10,7 9,4 5 3 15 8 SSE 60 0,0
13.04.2019 13:00:00 12,7 -4,0 10,4 9,4 7 4 14 7 SE 60 0,0
13.04.2019 12:00:00 11,3 -2,5 10,3 9,4 5 3 12 6 ESE 53 0,0
13.04.2019 11:00:00 9,4 1,8 10,3 9,4 5 3 16 9 S 56 0,0
13.04.2019 10:00:00 6,0 0,9 10,3 9,4 4 2 8 4 S 0 0,0
13.04.2019 09:00:00 5,0 1,1 10,5 9,4 0 0 5 3 N 23 0,0
13.04.2019 08:00:00 3,4 1,0 10,6 9,4 0 0 5 3 N 5 0,0
13.04.2019 07:00:00 3,3 0,7 10,7 9,4 2 1 4 2 W 0 0,0
13.04.2019 06:00:00 3,5 0,4 10,9 9,4 2 1 5 3 WNW 0 0,0
13.04.2019 05:00:00 3,7 0,2 11,0 9,4 0 0 4 2 N 0 0,0
13.04.2019 04:00:00 3,9 0,4 11,2 9,4 2 1 4 2 WSW 0 0,0
13.04.2019 03:00:00 4,4 0,0 11,3 9,4 0 0 7 4 N 0 0,0
13.04.2019 02:00:00 4,8 0,0 11,5 9,4 3 1 10 6 WSW 0 0,0

tt = Température de l'air
td = dewpoint
tt -20cm = Température de l'air -20cm
tt -100cm = Température de l'air -100cm
ff = Vitesse du vent
fx = gusts
dd = Direction du vent
sd = Ensoleillement
rr = Quantités de précipitations

stations d'obs. à proximité